Time;durP1;ratioP1;P1;durP2;ratioP2;P2;SDS_P1;SDS_P2;PMS_P1;PMS_P2;Temp;Humidity;BMP_temperature;BMP_pressure;BME280_temperature;BME280_humidity;BME280_pressure;Samples;Min_cycle;Max_cycle;Signal;HPM_P1;HPM_P2
2024/04/11 00:00:21;;;;;;;14.50;3.40;;;;;;;7.04;100.00;102580.28;9028260;26;20003;-77
2024/04/11 00:04:23;;;;;;;7.65;3.38;;;;;;;6.89;100.00;102587.53;8966651;26;20006;-77
2024/04/11 00:08:25;;;;;;;9.18;3.53;;;;;;;6.78;100.00;102595.44;9027584;26;20071;-78
2024/04/11 00:12:27;;;;;;;6.82;3.60;;;;;;;7.08;100.00;102589.75;9027966;26;20007;-77
2024/04/11 00:16:29;;;;;;;6.07;3.40;;;;;;;6.99;100.00;102591.25;9029210;26;20010;-77
2024/04/11 00:20:32;;;;;;;12.00;4.00;;;;;;;6.53;100.00;102588.31;9029407;26;20010;-77
2024/04/11 00:24:35;;;;;;;7.60;3.53;;;;;;;6.75;100.00;102595.66;9026735;26;20479;-77
2024/04/11 00:28:36;;;;;;;5.82;3.50;;;;;;;6.63;100.00;102589.38;9027043;26;20475;-77
2024/04/11 00:32:38;;;;;;;7.40;3.25;;;;;;;6.72;100.00;102595.88;9026696;26;20006;-77
2024/04/11 00:36:41;;;;;;;4.60;3.20;;;;;;;6.41;100.00;102603.31;8974141;26;20013;-78
2024/04/11 00:40:51;;;;;;;5.88;3.60;;;;;;;6.74;100.00;102591.28;8966694;26;20019;-76
2024/04/11 00:44:54;;;;;;;8.88;3.78;;;;;;;6.74;100.00;102588.63;8948247;26;19998;-77
2024/04/11 00:48:56;;;;;;;4.18;3.30;;;;;;;6.87;100.00;102594.78;9026918;26;21163;-76
2024/04/11 00:52:58;;;;;;;11.93;4.22;;;;;;;6.65;100.00;102592.78;9026064;26;20075;-76
2024/04/11 00:57:05;;;;;;;6.35;4.07;;;;;;;6.78;100.00;102598.97;8991477;26;20007;-75
2024/04/11 01:01:07;;;;;;;10.18;4.03;;;;;;;6.92;100.00;102593.50;8937805;26;19999;-75
2024/04/11 01:05:10;;;;;;;5.68;3.63;;;;;;;6.34;100.00;102604.69;9004782;26;20080;-75
2024/04/11 01:09:19;;;;;;;7.57;3.65;;;;;;;6.04;100.00;102595.16;9028104;26;20014;-76
2024/04/11 01:13:21;;;;;;;6.53;3.45;;;;;;;6.40;100.00;102608.75;9026901;26;19999;-76
2024/04/11 01:17:23;;;;;;;7.45;4.07;;;;;;;6.13;100.00;102592.84;8998368;26;20018;-77
2024/04/11 01:21:28;;;;;;;7.30;4.50;;;;;;;6.17;100.00;102602.31;8975051;26;20003;-76
2024/04/11 01:25:31;;;;;;;10.65;4.43;;;;;;;6.50;100.00;102589.38;8997560;26;20493;-76
2024/04/11 01:29:35;;;;;;;11.70;4.50;;;;;;;6.69;100.00;102590.75;8961088;26;20330;-75
2024/04/11 01:33:38;;;;;;;6.65;4.32;;;;;;;5.93;100.00;102599.50;9026938;26;20049;-76
2024/04/11 01:37:40;;;;;;;8.77;4.38;;;;;;;6.14;100.00;102600.72;9025024;26;20003;-77
2024/04/11 01:41:41;;;;;;;9.02;5.03;;;;;;;5.89;100.00;102587.31;9017676;26;20079;-77
2024/04/11 01:45:43;;;;;;;9.38;5.32;;;;;;;6.11;100.00;102594.75;8994633;26;20013;-77
2024/04/11 01:49:45;;;;;;;9.75;6.10;;;;;;;6.28;100.00;102586.47;8994220;26;20107;-77
2024/04/11 01:53:46;;;;;;;11.45;5.28;;;;;;;6.37;100.00;102593.81;9031330;26;20023;-77
2024/04/11 01:57:48;;;;;;;8.80;5.60;;;;;;;6.31;100.00;102584.47;9030595;26;20003;-76
2024/04/11 02:01:50;;;;;;;11.07;5.13;;;;;;;6.15;100.00;102585.59;9030433;26;20509;-78
2024/04/11 02:05:52;;;;;;;10.10;5.45;;;;;;;6.42;100.00;102588.19;8999757;26;20454;-77
2024/04/11 02:09:56;;;;;;;11.07;5.25;;;;;;;5.89;100.00;102595.28;9030032;26;20003;-77
2024/04/11 02:13:58;;;;;;;11.35;6.53;;;;;;;5.63;100.00;102589.03;9030159;26;20003;-78
2024/04/11 02:18:01;;;;;;;11.18;4.97;;;;;;;5.91;100.00;102591.63;9000554;26;20034;-78
2024/04/11 02:22:07;;;;;;;10.15;6.50;;;;;;;5.92;100.00;102585.34;9002400;26;20461;-78
2024/04/11 02:26:09;;;;;;;9.57;5.97;;;;;;;5.80;100.00;102591.44;9001471;26;19998;-78
2024/04/11 02:30:10;;;;;;;6.82;5.13;;;;;;;5.73;100.00;102599.00;9032295;26;20003;-78
2024/04/11 02:34:12;;;;;;;10.82;6.50;;;;;;;5.82;100.00;102594.84;9031907;26;20003;-78
2024/04/11 02:38:14;;;;;;;9.43;5.63;;;;;;;6.03;100.00;102597.91;9031359;26;20474;-78
2024/04/11 02:42:17;;;;;;;9.45;5.60;;;;;;;5.60;100.00;102591.91;9000864;26;19998;-78
2024/04/11 02:46:18;;;;;;;9.45;5.03;;;;;;;5.40;100.00;102598.53;9032041;26;20035;-78
2024/04/11 02:50:23;;;;;;;9.05;5.88;;;;;;;5.49;100.00;102594.41;9030639;26;20018;-78
2024/04/11 02:54:26;;;;;;;7.88;5.45;;;;;;;5.74;100.00;102595.38;9031469;26;20018;-78
2024/04/11 02:58:28;;;;;;;17.33;6.28;;;;;;;5.88;100.00;102586.44;9031206;26;20017;-78
2024/04/11 03:02:33;;;;;;;12.13;6.00;;;;;;;5.60;100.00;102591.91;9027965;26;20003;-78
2024/04/11 03:06:37;;;;;;;9.13;5.55;;;;;;;5.31;100.00;102594.63;9029568;26;20033;-78
2024/04/11 03:10:42;;;;;;;11.70;6.40;;;;;;;5.57;100.00;102592.97;9029614;26;20018;-78
2024/04/11 03:14:49;;;;;;;10.63;6.03;;;;;;;5.81;100.00;102594.97;9029392;26;19999;-78
2024/04/11 03:18:54;;;;;;;10.48;6.18;;;;;;;5.66;100.00;102596.81;9029415;26;20029;-78
2024/04/11 03:22:56;;;;;;;8.82;5.72;;;;;;;5.75;100.00;102593.56;9029885;26;20002;-78
2024/04/11 03:27:00;;;;;;;10.90;6.05;;;;;;;5.80;100.00;102593.25;8997725;26;20014;-77
2024/04/11 03:31:08;;;;;;;10.85;6.85;;;;;;;5.29;100.00;102593.03;8996786;26;20014;-78
2024/04/11 03:35:12;;;;;;;9.52;6.20;;;;;;;5.35;100.00;102588.16;9024466;26;20003;-76
2024/04/11 03:39:15;;;;;;;9.80;6.25;;;;;;;5.34;100.00;102591.78;8970617;26;20031;-76
2024/04/11 03:43:16;;;;;;;13.52;6.30;;;;;;;5.24;100.00;102584.50;8968101;26;20329;-76
2024/04/11 03:47:21;;;;;;;10.32;6.22;;;;;;;5.33;100.00;102590.06;9009956;26;19999;-76
2024/04/11 03:51:25;;;;;;;10.38;5.65;;;;;;;5.41;100.00;102587.78;9027333;26;20047;-77
2024/04/11 03:55:27;;;;;;;10.18;6.43;;;;;;;5.46;100.00;102584.81;9027181;26;20013;-76
2024/04/11 03:59:28;;;;;;;10.73;6.30;;;;;;;5.67;100.00;102579.91;8995680;26;20071;-76
2024/04/11 04:03:30;;;;;;;13.40;7.68;;;;;;;5.75;100.00;102580.25;9027420;26;20019;-77
2024/04/11 04:07:32;;;;;;;11.63;5.93;;;;;;;5.50;100.00;102601.41;9026999;26;20019;-76
2024/04/11 04:11:38;;;;;;;10.00;6.97;;;;;;;5.61;100.00;102606.91;9028974;26;20031;-76
2024/04/11 04:15:43;;;;;;;13.82;7.05;;;;;;;5.30;100.00;102600.91;8984672;26;20070;-75
2024/04/11 04:19:45;;;;;;;13.73;6.53;;;;;;;5.22;100.00;102600.56;9015345;26;20011;-76
2024/04/11 04:23:54;;;;;;;11.82;6.20;;;;;;;5.21;100.00;102609.47;9029952;26;20053;-76
2024/04/11 04:27:56;;;;;;;10.57;6.50;;;;;;;5.20;100.00;102609.53;9027771;26;20067;-77
2024/04/11 04:31:58;;;;;;;33.55;15.25;;;;;;;5.58;100.00;102607.97;9027163;26;20018;-76
2024/04/11 04:35:59;;;;;;;15.15;8.40;;;;;;;5.55;100.00;102607.28;9026834;26;19999;-76
2024/04/11 04:40:01;;;;;;;19.45;7.32;;;;;;;5.62;100.00;102616.59;9027641;26;20006;-76
2024/04/11 04:44:05;;;;;;;15.68;7.25;;;;;;;5.58;100.00;102597.31;9027305;26;20002;-77
2024/04/11 04:48:11;;;;;;;13.18;7.03;;;;;;;5.56;100.00;102607.22;9019577;26;20323;-77
2024/04/11 04:52:14;;;;;;;15.13;7.10;;;;;;;5.51;100.00;102606.63;9020383;26;20017;-80
2024/04/11 04:56:17;;;;;;;14.10;6.82;;;;;;;5.61;100.00;102606.91;9030905;26;20003;-78
2024/04/11 05:00:19;;;;;;;12.60;6.80;;;;;;;5.60;100.00;102605.19;9029693;26;20022;-77
2024/04/11 05:04:21;;;;;;;13.68;7.45;;;;;;;5.52;100.00;102618.97;9027795;26;20454;-77
2024/04/11 05:08:23;;;;;;;9.85;6.30;;;;;;;5.55;100.00;102617.91;9027383;26;20492;-77
2024/04/11 05:12:27;;;;;;;12.48;7.80;;;;;;;5.61;100.00;102623.72;8995454;26;19999;-77
2024/04/11 05:16:28;;;;;;;12.10;7.50;;;;;;;5.55;100.00;102618.78;9014823;26;20039;-77
2024/04/11 05:20:33;;;;;;;15.82;6.68;;;;;;;5.54;100.00;102613.56;8967623;26;20008;-78
2024/04/11 05:24:35;;;;;;;27.08;8.70;;;;;;;5.67;100.00;102612.66;8966838;26;20003;-77
2024/04/11 05:28:37;;;;;;;38.65;9.00;;;;;;;5.85;100.00;102609.75;9031687;26;20011;-77
2024/04/11 05:32:46;;;;;;;34.03;8.13;;;;;;;5.92;100.00;102605.78;8979117;26;20467;-76
2024/04/11 05:36:49;;;;;;;16.45;7.55;;;;;;;6.07;100.00;102596.75;9004768;26;20016;-76
2024/04/11 05:40:52;;;;;;;26.88;7.97;;;;;;;6.33;100.00;102600.31;9031360;26;20010;-76
2024/04/11 05:44:54;;;;;;;12.50;6.65;;;;;;;6.39;100.00;102604.38;9030755;26;20461;-76
2024/04/11 05:48:56;;;;;;;19.50;8.30;;;;;;;6.51;100.00;102608.88;9023315;26;19998;-76
2024/04/11 05:52:58;;;;;;;13.50;7.65;;;;;;;6.59;100.00;102603.84;9020985;26;20015;-76
2024/04/11 05:57:00;;;;;;;19.67;7.55;;;;;;;6.82;100.00;102607.59;9031634;26;20023;-77
2024/04/11 06:01:05;;;;;;;15.23;7.35;;;;;;;6.83;100.00;102610.16;9032323;26;20003;-76
2024/04/11 06:05:07;;;;;;;16.67;8.00;;;;;;;7.07;100.00;102617.38;9034180;26;20003;-77
2024/04/11 06:09:13;;;;;;;14.30;8.40;;;;;;;7.24;100.00;102599.19;9032653;26;20060;-77
2024/04/11 06:13:16;;;;;;;18.40;8.43;;;;;;;7.38;100.00;102602.69;9031298;26;20080;-77
2024/04/11 06:17:18;;;;;;;11.55;7.18;;;;;;;7.52;100.00;102605.22;9028935;26;20007;-77
2024/04/11 06:21:31;;;;;;;12.75;8.00;;;;;;;7.73;100.00;102608.09;9031241;26;20366;-76
2024/04/11 06:25:33;;;;;;;15.02;7.78;;;;;;;7.99;100.00;102616.84;9031287;26;20450;-77
2024/04/11 06:29:38;;;;;;;14.23;6.97;;;;;;;8.21;100.00;102616.09;9030714;26;20035;-76
2024/04/11 06:33:40;;;;;;;17.95;7.72;;;;;;;8.38;100.00;102611.19;9030256;26;20006;-77
2024/04/11 06:37:44;;;;;;;15.70;7.22;;;;;;;8.54;100.00;102602.84;9028677;26;20003;-76
2024/04/11 06:41:49;;;;;;;27.27;7.82;;;;;;;8.91;100.00;102595.47;9029977;26;20010;-77
2024/04/11 06:45:51;;;;;;;10.95;5.55;;;;;;;9.02;96.57;102594.59;8998381;26;20017;-76
2024/04/11 06:49:53;;;;;;;11.73;5.95;;;;;;;9.23;95.26;102592.91;9029721;26;19999;-77
2024/04/11 06:53:54;;;;;;;11.80;6.72;;;;;;;9.40;93.65;102591.53;9029824;26;20346;-77
2024/04/11 06:57:57;;;;;;;22.13;7.75;;;;;;;9.86;94.92;102593.94;9029855;26;20009;-76
2024/04/11 07:02:00;;;;;;;15.85;6.13;;;;;;;9.96;92.05;102599.38;9029900;26;20014;-77
2024/04/11 07:06:21;;;;;;;13.95;6.70;;;;;;;10.34;85.84;102606.88;8999690;26;20076;-76
2024/04/11 07:10:26;;;;;;;13.93;6.50;;;;;;;10.49;84.81;102599.38;9036759;26;19999;-77
2024/04/11 07:14:28;;;;;;;13.02;5.88;;;;;;;10.81;82.49;102612.69;9032353;26;20010;-77
2024/04/11 07:18:44;;;;;;;11.02;5.13;;;;;;;10.88;78.51;102603.94;8997883;26;20345;-77
2024/04/11 07:22:46;;;;;;;8.85;4.35;;;;;;;11.05;75.50;102609.66;8997782;26;20075;-76
2024/04/11 07:26:48;;;;;;;9.85;4.50;;;;;;;11.47;74.74;102603.19;9028330;26;20475;-76
2024/04/11 07:30:50;;;;;;;6.70;4.13;;;;;;;11.54;71.34;102605.31;9028244;26;20079;-76
2024/04/11 07:34:52;;;;;;;16.48;4.47;;;;;;;11.77;68.04;102598.69;8990513;26;20041;-76
2024/04/11 07:38:57;;;;;;;10.80;4.03;;;;;;;11.84;67.05;102585.59;8938357;26;20011;-78
2024/04/11 07:43:06;;;;;;;8.73;3.53;;;;;;;11.99;66.19;102581.50;8949688;26;19994;-76
2024/04/11 07:47:08;;;;;;;56.47;5.97;;;;;;;12.37;66.94;102573.38;9028311;26;20031;-76
2024/04/11 07:51:21;;;;;;;22.95;4.28;;;;;;;12.45;63.23;102585.25;9027367;26;20003;-76
2024/04/11 07:55:23;;;;;;;8.80;3.25;;;;;;;12.64;61.62;102575.28;9027626;26;20007;-76
2024/04/11 07:59:25;;;;;;;11.77;3.42;;;;;;;12.81;61.61;102562.91;8995418;26;20010;-76
2024/04/11 08:03:27;;;;;;;4.35;2.58;;;;;;;13.10;57.52;102565.47;9027369;26;20002;-77
2024/04/11 08:07:28;;;;;;;15.15;2.60;;;;;;;13.03;54.29;102568.91;8996594;26;20002;-76
2024/04/11 08:11:30;;;;;;;5.60;2.05;;;;;;;13.30;53.96;102574.31;9027158;26;20346;-77
2024/04/11 08:15:32;;;;;;;8.10;2.22;;;;;;;13.42;53.78;102580.34;9027100;26;20415;-77
2024/04/11 08:19:33;;;;;;;6.63;2.20;;;;;;;13.73;53.28;102583.53;9026919;26;20010;-76
2024/04/11 08:23:47;;;;;;;12.93;3.47;;;;;;;14.11;52.22;102585.91;9026871;26;20002;-76
2024/04/11 08:27:49;;;;;;;6.97;2.30;;;;;;;14.44;50.21;102584.34;9027143;26;20010;-76
2024/04/11 08:31:51;;;;;;;17.50;2.33;;;;;;;14.33;50.86;102607.97;9026395;26;20363;-76
2024/04/11 08:35:53;;;;;;;5.57;1.60;;;;;;;14.36;49.41;102597.72;9027268;26;19999;-77
2024/04/11 08:39:55;;;;;;;14.02;2.20;;;;;;;14.40;48.92;102617.13;9027175;26;20006;-76
2024/04/11 08:43:57;;;;;;;7.75;1.20;;;;;;;14.86;47.99;102599.75;9027155;26;20031;-77
2024/04/11 08:47:58;;;;;;;21.98;2.53;;;;;;;15.00;47.29;102596.44;9027015;26;20003;-76
2024/04/11 08:52:05;;;;;;;5.93;1.85;;;;;;;14.52;46.91;102591.63;9028769;26;20383;-77
2024/04/11 08:56:11;;;;;;;5.82;2.17;;;;;;;14.70;46.80;102603.19;9028473;26;20010;-76
2024/04/11 09:00:13;;;;;;;3.03;1.80;;;;;;;14.67;48.21;102600.81;9025635;26;19999;-77
2024/04/11 09:04:16;;;;;;;16.63;3.70;;;;;;;15.52;47.13;102601.72;9026566;26;20007;-77
2024/04/11 09:08:19;;;;;;;6.60;2.45;;;;;;;15.34;47.29;102603.69;9027042;26;19998;-76
2024/04/11 09:12:27;;;;;;;5.55;1.73;;;;;;;15.51;46.28;102615.38;8991489;26;20069;-76
2024/04/11 09:16:29;;;;;;;15.48;2.20;;;;;;;15.45;45.91;102610.66;8987860;26;20030;-78
2024/04/11 09:20:34;;;;;;;9.75;1.60;;;;;;;15.56;45.78;102621.97;8995069;26;20519;-77
2024/04/11 09:24:38;;;;;;;8.73;2.17;;;;;;;15.65;45.66;102609.38;9026154;26;20011;-77
2024/04/11 09:28:40;;;;;;;9.85;1.65;;;;;;;15.50;44.75;102605.59;9014539;26;20076;-76
2024/04/11 09:32:44;;;;;;;5.75;1.27;;;;;;;16.05;43.62;102618.56;8966643;26;20004;-77
2024/04/11 09:36:47;;;;;;;5.50;1.33;;;;;;;15.43;43.09;102610.78;8993045;26;20003;-77
2024/04/11 09:40:53;;;;;;;14.90;1.65;;;;;;;15.63;43.79;102611.41;9026794;26;20014;-76
2024/04/11 09:44:55;;;;;;;10.93;2.25;;;;;;;15.19;41.47;102624.22;9027148;26;19999;-77
2024/04/11 09:48:58;;;;;;;7.90;0.98;;;;;;;15.44;41.42;102598.97;9026539;26;20029;-78
2024/04/11 09:53:00;;;;;;;6.28;1.90;;;;;;;15.81;42.12;102617.53;9024984;26;19999;-77
2024/04/11 09:57:03;;;;;;;11.05;1.40;;;;;;;16.03;40.79;102607.91;9026010;26;20006;-77
2024/04/11 10:01:30;;;;;;;6.40;1.23;;;;;;;16.10;40.09;102611.63;8997491;26;20026;-76
2024/04/11 10:05:36;;;;;;;9.93;1.70;;;;;;;16.53;40.67;102623.97;9029093;26;19999;-76
2024/04/11 10:09:50;;;;;;;8.07;1.42;;;;;;;16.22;41.18;102618.38;9027034;26;20014;-76
2024/04/11 10:13:55;;;;;;;35.63;3.17;;;;;;;16.54;42.42;102619.38;8997899;26;20007;-77
2024/04/11 10:18:08;;;;;;;6.95;1.55;;;;;;;16.00;40.73;102632.59;9032134;26;20018;-77
2024/04/11 10:22:15;;;;;;;23.45;2.63;;;;;;;16.33;40.54;102624.47;9000014;26;20003;-77
2024/04/11 10:26:27;;;;;;;7.18;1.50;;;;;;;16.30;41.41;102612.13;8998994;26;20014;-77
2024/04/11 10:30:32;;;;;;;41.47;3.08;;;;;;;16.25;41.67;102636.13;9030519;26;20007;-76
2024/04/11 10:34:45;;;;;;;10.45;2.17;;;;;;;15.98;41.02;102621.09;9021100;26;20043;-78
2024/04/11 10:38:55;;;;;;;5.28;1.50;;;;;;;15.55;40.56;102628.38;9027222;26;20110;-78
2024/04/11 10:43:12;;;;;;;56.75;5.63;;;;;;;15.74;42.14;102631.84;9031686;26;20003;-78
2024/04/11 10:47:17;;;;;;;11.63;1.95;;;;;;;15.52;41.29;102619.78;8970921;26;19999;-78
2024/04/11 10:51:27;;;;;;;27.80;2.53;;;;;;;15.68;42.30;102623.41;9016326;26;20003;-77
2024/04/11 10:55:29;;;;;;;9.43;1.63;;;;;;;15.62;41.56;102624.06;8977538;26;20010;-77
2024/04/11 10:59:34;;;;;;;3.08;1.10;;;;;;;15.59;43.74;102624.38;9031681;26;20015;-77
2024/04/11 11:07:49;;;;;;;2.90;1.38;;;;;;;15.68;42.50;102612.59;9030027;26;20042;-77
2024/04/11 11:11:54;;;;;;;22.63;2.78;;;;;;;16.01;42.73;102614.50;9015442;26;20004;-77
2024/04/11 11:15:59;;;;;;;2.50;0.80;;;;;;;15.76;43.17;102600.09;8948927;26;20010;-77
2024/04/11 11:20:09;;;;;;;9.82;1.90;;;;;;;15.71;42.94;102616.81;9029329;26;20018;-77
2024/04/11 11:24:15;;;;;;;2.53;1.23;;;;;;;15.62;43.97;102610.56;9024635;26;20007;-76
2024/04/11 11:28:17;;;;;;;2.47;1.17;;;;;;;15.72;43.97;102614.97;9015643;26;20031;-77
2024/04/11 11:32:19;;;;;;;2.92;1.10;;;;;;;15.72;43.81;102610.41;9029115;26;20003;-77
2024/04/11 11:36:20;;;;;;;10.73;1.20;;;;;;;15.89;43.04;102609.41;9020409;26;20015;-78
2024/04/11 11:40:40;;;;;;;1.27;0.55;;;;;;;15.62;41.94;102610.56;9029181;26;20010;-77
2024/04/11 11:45:05;;;;;;;5.90;1.30;;;;;;;16.09;43.53;102599.13;9028452;26;20402;-77
2024/04/11 11:49:08;;;;;;;1.88;1.33;;;;;;;16.06;43.14;102604.88;9028375;26;19999;-77
2024/04/11 11:53:25;;;;;;;14.88;2.30;;;;;;;16.24;42.28;102600.13;9029728;26;20329;-76
2024/04/11 11:57:39;;;;;;;20.02;2.28;;;;;;;16.20;41.50;102598.78;9028225;26;20003;-78
2024/04/11 12:01:41;;;;;;;12.75;2.60;;;;;;;15.95;41.35;102581.69;9028478;26;20013;-77
2024/04/11 12:05:50;;;;;;;7.85;1.95;;;;;;;16.01;42.41;102592.88;9028309;26;20031;-77
2024/04/11 12:10:12;;;;;;;2.53;1.17;;;;;;;15.71;41.02;102591.66;9027852;26;20152;-77
2024/04/11 12:14:22;;;;;;;2.60;1.10;;;;;;;15.73;41.43;102584.22;9028213;26;20013;-77
2024/04/11 12:18:25;;;;;;;6.53;1.15;;;;;;;15.83;41.68;102588.47;8996100;26;20006;-77
2024/04/11 12:22:26;;;;;;;2.60;1.10;;;;;;;16.01;41.11;102590.16;9028107;26;20054;-76
2024/04/11 12:26:32;;;;;;;3.33;1.30;;;;;;;16.02;41.97;102584.59;9027477;26;20013;-77
2024/04/11 12:30:35;;;;;;;5.43;1.30;;;;;;;16.20;43.36;102582.56;8997059;26;20027;-77
2024/04/11 12:34:37;;;;;;;3.00;0.98;;;;;;;16.12;40.13;102576.28;9027170;26;19999;-78
2024/04/11 12:38:39;;;;;;;4.03;0.88;;;;;;;15.84;39.31;102573.94;9028897;26;20003;-78
2024/04/11 12:42:41;;;;;;;12.77;1.45;;;;;;;16.18;39.03;102578.34;9030731;26;20003;-77
2024/04/11 12:46:52;;;;;;;3.80;0.82;;;;;;;15.92;38.89;102565.81;9031408;26;20007;-78
2024/04/11 12:50:55;;;;;;;1.55;1.05;;;;;;;15.97;40.36;102557.22;8998224;26;20451;-77
2024/04/11 12:55:00;;;;;;;17.60;2.08;;;;;;;16.18;40.27;102559.41;9032839;26;20002;-77
2024/04/11 12:59:05;;;;;;;62.22;4.68;;;;;;;16.29;40.24;102540.97;9036870;26;20007;-77
2024/04/11 13:03:06;;;;;;;19.75;2.55;;;;;;;16.45;38.67;102547.34;8958098;26;20084;-78
2024/04/11 13:07:12;;;;;;;33.03;3.47;;;;;;;16.49;38.78;102549.56;8971685;26;20019;-76
2024/04/11 13:11:36;;;;;;;7.20;1.30;;;;;;;16.06;38.32;102558.91;9004663;26;20014;-78
2024/04/11 13:15:49;;;;;;;4.55;1.52;;;;;;;16.42;38.94;102553.13;9024474;26;20014;-78
2024/04/11 13:19:56;;;;;;;4.78;0.93;;;;;;;16.11;38.78;102555.69;9027772;26;20072;-77
2024/04/11 13:23:58;;;;;;;6.00;1.05;;;;;;;16.19;39.53;102553.84;9026843;26;20021;-77
2024/04/11 13:28:00;;;;;;;2.63;1.13;;;;;;;16.56;39.83;102555.13;9026355;26;20003;-77
2024/04/11 13:32:05;;;;;;;8.43;1.60;;;;;;;16.18;40.73;102556.72;9021033;26;20011;-77
2024/04/11 13:36:12;;;;;;;1.73;0.63;;;;;;;16.01;42.18;102563.13;9027624;26;20003;-77
2024/04/11 13:44:32;;;;;;;6.38;1.40;;;;;;;16.18;41.02;102565.66;9026954;26;20068;-77
2024/04/11 13:48:52;;;;;;;22.42;3.10;;;;;;;16.37;42.60;102564.47;8999306;26;20430;-77
2024/04/11 13:52:54;;;;;;;7.55;1.60;;;;;;;16.06;42.81;102556.19;9033226;26;20002;-77
2024/04/11 13:56:59;;;;;;;5.80;1.77;;;;;;;16.05;42.45;102550.97;9032023;26;20003;-77
2024/04/11 14:01:02;;;;;;;5.55;1.50;;;;;;;16.04;42.97;102551.97;9001393;26;20013;-77
2024/04/11 14:05:10;;;;;;;3.28;1.38;;;;;;;15.96;42.35;102547.41;9032761;26;20007;-77
2024/04/11 14:09:17;;;;;;;15.50;2.63;;;;;;;16.22;44.46;102552.63;9031607;26;20002;-77
2024/04/11 14:13:19;;;;;;;3.03;1.70;;;;;;;16.04;42.85;102544.72;9031648;26;20374;-77
2024/04/11 14:17:28;;;;;;;15.57;2.03;;;;;;;16.23;43.42;102540.81;9031108;26;20014;-77
2024/04/11 14:21:53;;;;;;;3.85;1.60;;;;;;;16.53;43.49;102531.13;9033673;26;20010;-78
2024/04/11 14:26:04;;;;;;;2.78;1.10;;;;;;;16.43;42.57;102527.75;9032549;26;20351;-77
2024/04/11 14:30:07;;;;;;;2.35;1.08;;;;;;;16.66;42.68;102528.72;8998759;26;20014;-77
2024/04/11 14:38:19;;;;;;;2.65;1.20;;;;;;;16.58;43.59;102528.72;9030451;26;19999;-77
2024/04/11 14:42:23;;;;;;;2.75;1.35;;;;;;;16.86;42.39;102530.03;9030254;26;20056;-76
2024/04/11 14:46:26;;;;;;;3.08;1.50;;;;;;;16.40;43.13;102534.34;9030034;26;19999;-76
2024/04/11 14:50:27;;;;;;;4.88;1.40;;;;;;;16.69;43.33;102525.69;9029629;26;20076;-76
2024/04/11 14:54:29;;;;;;;12.95;1.95;;;;;;;16.95;43.62;102525.41;9029946;26;20007;-77
2024/04/11 14:58:37;;;;;;;3.53;1.42;;;;;;;16.72;42.96;102529.91;9028510;26;20014;-76
2024/04/11 15:02:41;;;;;;;3.55;1.70;;;;;;;16.72;45.37;102530.75;9031651;26;19999;-77
2024/04/11 15:06:44;;;;;;;4.32;2.20;;;;;;;16.70;43.55;102527.38;9030195;26;20003;-77
2024/04/11 15:10:50;;;;;;;5.30;2.67;;;;;;;16.73;43.33;102527.03;9029227;26;20014;-77
2024/04/11 15:14:51;;;;;;;3.33;1.65;;;;;;;16.44;44.17;102521.31;9029650;26;20465;-77
2024/04/11 15:18:53;;;;;;;4.57;1.95;;;;;;;16.39;44.60;102529.13;9025779;26;20010;-78
2024/04/11 15:22:55;;;;;;;3.47;1.25;;;;;;;16.52;45.51;102540.25;8970750;26;20019;-77
2024/04/11 15:26:57;;;;;;;4.13;1.10;;;;;;;16.37;46.28;102529.28;8992944;26;20406;-77
2024/04/11 15:35:10;;;;;;;4.38;1.38;;;;;;;16.39;47.22;102512.88;9036308;26;20388;-78
2024/04/11 15:39:16;;;;;;;5.80;1.30;;;;;;;16.38;46.91;102517.47;9000388;26;20019;-77
2024/04/11 15:43:26;;;;;;;5.03;1.52;;;;;;;16.33;47.23;102519.84;9002411;26;20033;-77
2024/04/11 15:47:32;;;;;;;3.67;1.52;;;;;;;16.55;47.05;102510.16;9002262;26;20447;-77
2024/04/11 15:51:35;;;;;;;6.35;1.52;;;;;;;16.43;48.07;102523.19;9020612;26;20004;-77
2024/04/11 15:55:50;;;;;;;6.45;1.50;;;;;;;16.50;47.13;102529.63;8966773;26;20334;-77
2024/04/11 15:59:52;;;;;;;2.97;1.20;;;;;;;16.36;45.76;102526.75;8940580;26;20031;-77
2024/04/11 16:03:55;;;;;;;7.38;1.45;;;;;;;16.52;45.83;102527.56;8970102;26;20023;-78
2024/04/11 16:08:09;;;;;;;6.97;1.73;;;;;;;16.38;45.96;102527.44;8969564;26;20010;-77
2024/04/11 16:12:12;;;;;;;8.80;1.40;;;;;;;16.58;45.43;102524.16;9028064;26;20027;-77
2024/04/11 16:16:14;;;;;;;8.77;1.95;;;;;;;16.75;45.50;102532.25;9028198;26;20002;-77
2024/04/11 16:20:16;;;;;;;5.20;1.52;;;;;;;16.90;45.50;102535.09;9029051;26;20360;-77
2024/04/11 16:24:40;;;;;;;5.65;1.30;;;;;;;16.77;45.84;102535.63;9027273;26;20079;-77
2024/04/11 16:28:42;;;;;;;2.35;1.15;;;;;;;16.68;45.31;102529.41;9027766;26;20017;-78
2024/04/11 16:32:48;;;;;;;3.95;1.30;;;;;;;16.81;45.54;102531.56;9027039;26;20050;-77
2024/04/11 16:36:53;;;;;;;8.50;1.30;;;;;;;17.01;45.81;102535.56;9026927;26;20535;-77
2024/04/11 16:40:55;;;;;;;8.48;1.45;;;;;;;17.31;45.50;102530.28;9027239;26;20353;-77
2024/04/11 16:45:24;;;;;;;4.85;2.47;;;;;;;18.93;43.01;102518.00;9031696;26;20003;-79
2024/04/11 16:49:35;;;;;;;3.40;1.67;;;;;;;19.36;41.66;102518.06;9034853;26;20384;-79
2024/04/11 16:53:46;;;;;;;10.73;3.08;;;;;;;18.98;42.63;102520.13;9036137;26;20021;-79
2024/04/11 16:57:50;;;;;;;4.80;2.70;;;;;;;17.84;44.12;102521.31;9038691;26;20044;-79
2024/04/11 17:01:55;;;;;;;3.08;1.63;;;;;;;16.79;46.26;102520.91;9003807;26;20015;-78
2024/04/11 17:05:57;;;;;;;2.72;1.30;;;;;;;17.25;45.84;102518.31;9035025;26;20067;-78
2024/04/11 17:10:04;;;;;;;4.47;1.52;;;;;;;17.46;45.04;102518.50;9033823;26;20014;-78
2024/04/11 17:14:06;;;;;;;4.68;1.38;;;;;;;17.60;45.33;102518.78;9034368;26;20003;-79
2024/04/11 17:18:08;;;;;;;2.47;0.93;;;;;;;17.19;44.92;102510.91;9038036;26;20488;-79
2024/04/11 17:22:11;;;;;;;4.28;1.25;;;;;;;17.75;45.07;102512.41;9032010;26;20003;-78
2024/04/11 17:26:20;;;;;;;3.33;1.50;;;;;;;17.19;45.85;102510.91;9028733;26;20011;-80
2024/04/11 17:30:37;;;;;;;5.65;1.90;;;;;;;17.18;46.64;102510.06;8974452;26;20387;-77
2024/04/11 17:34:46;;;;;;;4.63;1.50;;;;;;;16.44;48.32;102508.63;8970410;26;20004;-78
2024/04/11 17:43:17;;;;;;;9.32;1.60;;;;;;;16.12;50.63;102509.53;9028237;26;20380;-78
2024/04/11 17:47:29;;;;;;;5.22;1.75;;;;;;;15.87;51.91;102518.69;8999178;26;20015;-78
2024/04/11 17:51:32;;;;;;;4.43;1.40;;;;;;;15.52;53.26;102515.28;9030738;26;20022;-78
2024/04/11 17:55:37;;;;;;;6.50;1.55;;;;;;;15.55;52.92;102523.03;8998696;26;20003;-78
2024/04/11 17:59:38;;;;;;;8.30;1.55;;;;;;;15.36;53.72;102531.44;8998222;26;20035;-78
2024/04/11 18:03:40;;;;;;;9.93;2.03;;;;;;;15.25;54.29;102531.75;9030489;26;20003;-78
2024/04/11 18:07:44;;;;;;;5.35;2.05;;;;;;;15.12;54.31;102528.69;9029051;26;20316;-79
2024/04/11 18:11:58;;;;;;;8.93;2.33;;;;;;;15.10;54.91;102539.66;9030912;26;20357;-78
2024/04/11 18:16:08;;;;;;;8.10;3.78;;;;;;;15.05;55.13;102534.72;9029725;26;19999;-78
2024/04/11 18:20:16;;;;;;;7.97;4.32;;;;;;;14.84;56.44;102539.69;9030956;26;20010;-78
2024/04/11 18:24:18;;;;;;;6.85;3.55;;;;;;;14.66;58.27;102538.94;9030450;26;20404;-80
2024/04/11 18:28:24;;;;;;;8.48;4.07;;;;;;;14.59;57.50;102529.81;9026501;26;20084;-79
2024/04/11 18:32:33;;;;;;;4.65;2.97;;;;;;;14.43;56.88;102517.91;8995270;26;20039;-78
2024/04/11 18:36:38;;;;;;;8.23;3.40;;;;;;;14.42;57.70;102527.00;9032388;26;20011;-79
2024/04/11 18:40:40;;;;;;;4.72;3.20;;;;;;;14.24;60.31;102522.66;9034383;26;20002;-79
2024/04/11 18:44:50;;;;;;;5.13;3.50;;;;;;;13.57;64.53;102533.88;9015736;26;20079;-78
2024/04/11 18:48:58;;;;;;;11.48;3.50;;;;;;;12.99;66.47;102544.13;9022943;26;20007;-77
2024/04/11 18:53:01;;;;;;;10.65;3.60;;;;;;;13.65;65.89;102561.88;9044582;26;20023;-77
2024/04/11 18:57:06;;;;;;;4.15;2.92;;;;;;;13.70;61.94;102549.66;9024221;26;20006;-77
2024/04/11 19:01:15;;;;;;;8.65;3.38;;;;;;;13.56;65.60;102547.50;9036202;26;20458;-77
2024/04/11 19:05:20;;;;;;;7.17;2.83;;;;;;;13.02;69.54;102564.53;9034071;26;20111;-78
2024/04/11 19:09:28;;;;;;;6.78;2.85;;;;;;;13.10;66.77;102559.25;9032279;26;20401;-77
2024/04/11 19:13:31;;;;;;;10.95;4.57;;;;;;;13.11;67.80;102561.78;9031612;26;20017;-78